aviador You're here:

BIAR Decoded Metar

AKUREYRI in ICELAND
Report Time2017-08-20 19:00:00
UTC Time2017-08-20 19:09:45
Flight Rules vfr VFR
Wind350° at 07 kt
W.Decomp.*RWY 01: 7.0 kt HW 0.7 kt LCW
W.Rank350° ranks 4
Current wind is below 350° avg. (10.4)
Visibility9999 m
Phenomena:N/A
Clouds:Few 049 Hf
Expected CloudBase > 2,000 ft AGL from Temp-Dew spread
CeilingNone
Temp10°C (ISA -5)
Dew Point05°C (71% RH)
AAT6.4°C
QNH1020 hPa
Density Alt-709 ft
Elevation7 ft
Report Wrong Elevation
Raw Report
METAR BIAR 201900Z 35007KT 9999 FEW049 10/05 Q1020=

Extra information for BIAR:More info

Metar Taf Metar & Taf Last 4 Metars F.Rules Stats Wind Profile Meteogram Temp Stats Airport Information Weather charts Add Link Nearby VenuesMetar ALERT Operation Metar Decoded Social comments